sensor_id;sensor_type;location;lat;lon;timestamp;temperature;humidity
21275;DHT22;36472;52.170;20.884;2022-07-31T00:00:30;27.20;67.90
21275;DHT22;36472;52.170;20.884;2022-07-31T00:03:04;27.10;69.30
21275;DHT22;36472;52.170;20.884;2022-07-31T00:05:35;27.20;69.40
21275;DHT22;36472;52.170;20.884;2022-07-31T00:08:08;27.20;67.90
21275;DHT22;36472;52.170;20.884;2022-07-31T00:10:37;27.60;67.30
21275;DHT22;36472;52.170;20.884;2022-07-31T00:13:06;27.30;66.70
21275;DHT22;36472;52.170;20.884;2022-07-31T00:15:36;27.30;67.20
21275;DHT22;36472;52.170;20.884;2022-07-31T00:18:05;27.40;67.60
21275;DHT22;36472;52.170;20.884;2022-07-31T00:20:36;27.20;67.70
21275;DHT22;36472;52.170;20.884;2022-07-31T00:23:05;27.10;68.50
21275;DHT22;36472;52.170;20.884;2022-07-31T00:25:37;27.10;69.00
21275;DHT22;36472;52.170;20.884;2022-07-31T00:28:06;27.10;68.70
21275;DHT22;36472;52.170;20.884;2022-07-31T00:30:34;27.30;68.00
21275;DHT22;36472;52.170;20.884;2022-07-31T00:33:03;27.00;67.60
21275;DHT22;36472;52.170;20.884;2022-07-31T00:35:33;27.20;69.30
21275;DHT22;36472;52.170;20.884;2022-07-31T00:38:04;27.40;68.30
21275;DHT22;36472;52.170;20.884;2022-07-31T00:40:52;27.50;67.30
21275;DHT22;36472;52.170;20.884;2022-07-31T00:43:24;27.50;68.80
21275;DHT22;36472;52.170;20.884;2022-07-31T00:45:57;27.50;69.20
21275;DHT22;36472;52.170;20.884;2022-07-31T00:48:26;27.40;67.00
21275;DHT22;36472;52.170;20.884;2022-07-31T00:50:57;27.30;69.40
21275;DHT22;36472;52.170;20.884;2022-07-31T00:53:26;27.20;68.50
21275;DHT22;36472;52.170;20.884;2022-07-31T00:55:55;27.30;70.10
21275;DHT22;36472;52.170;20.884;2022-07-31T00:58:24;27.50;69.90
21275;DHT22;36472;52.170;20.884;2022-07-31T01:00:53;27.40;67.30
21275;DHT22;36472;52.170;20.884;2022-07-31T01:03:22;27.30;67.20
21275;DHT22;36472;52.170;20.884;2022-07-31T01:05:51;27.30;68.50
21275;DHT22;36472;52.170;20.884;2022-07-31T01:08:20;26.80;70.60
21275;DHT22;36472;52.170;20.884;2022-07-31T01:10:55;26.50;70.30
21275;DHT22;36472;52.170;20.884;2022-07-31T01:13:30;26.20;70.10
21275;DHT22;36472;52.170;20.884;2022-07-31T01:16:17;26.40;71.20
21275;DHT22;36472;52.170;20.884;2022-07-31T01:18:46;26.10;71.20
21275;DHT22;36472;52.170;20.884;2022-07-31T01:21:23;25.80;71.40
21275;DHT22;36472;52.170;20.884;2022-07-31T01:24:11;26.00;72.00
21275;DHT22;36472;52.170;20.884;2022-07-31T01:27:02;25.90;71.90
21275;DHT22;36472;52.170;20.884;2022-07-31T01:29:38;25.80;71.00
21275;DHT22;36472;52.170;20.884;2022-07-31T01:32:15;26.40;72.80
21275;DHT22;36472;52.170;20.884;2022-07-31T01:34:59;26.70;71.00
21275;DHT22;36472;52.170;20.884;2022-07-31T01:37:34;26.90;69.40
21275;DHT22;36472;52.170;20.884;2022-07-31T01:40:11;27.00;68.40
21275;DHT22;36472;52.170;20.884;2022-07-31T01:42:44;26.90;68.20
21275;DHT22;36472;52.170;20.884;2022-07-31T01:45:20;26.40;67.70
21275;DHT22;36472;52.170;20.884;2022-07-31T01:47:51;26.40;69.00
21275;DHT22;36472;52.170;20.884;2022-07-31T01:50:28;26.70;69.30
21275;DHT22;36472;52.170;20.884;2022-07-31T01:53:13;26.60;68.70
21275;DHT22;36472;52.170;20.884;2022-07-31T01:55:48;26.70;70.00
21275;DHT22;36472;52.170;20.884;2022-07-31T01:58:33;27.10;69.40
21275;DHT22;36472;52.170;20.884;2022-07-31T02:01:43;27.30;68.20
21275;DHT22;36472;52.170;20.884;2022-07-31T02:04:17;27.40;66.10
21275;DHT22;36472;52.170;20.884;2022-07-31T02:06:48;27.30;65.80
21275;DHT22;36472;52.170;20.884;2022-07-31T02:09:19;27.00;68.00
21275;DHT22;36472;52.170;20.884;2022-07-31T02:11:50;27.10;86.70
21275;DHT22;36472;52.170;20.884;2022-07-31T02:14:23;26.70;86.80
21275;DHT22;36472;52.170;20.884;2022-07-31T02:16:55;26.30;83.70
21275;DHT22;36472;52.170;20.884;2022-07-31T02:19:47;26.30;85.50
21275;DHT22;36472;52.170;20.884;2022-07-31T02:22:27;25.80;77.70
21275;DHT22;36472;52.170;20.884;2022-07-31T02:24:56;25.60;81.00
21275;DHT22;36472;52.170;20.884;2022-07-31T02:27:26;25.40;78.70
21275;DHT22;36472;52.170;20.884;2022-07-31T02:30:17;25.70;88.80
21275;DHT22;36472;52.170;20.884;2022-07-31T02:32:50;26.00;85.80
21275;DHT22;36472;52.170;20.884;2022-07-31T02:35:21;26.00;83.70
21275;DHT22;36472;52.170;20.884;2022-07-31T02:37:53;25.70;83.50
21275;DHT22;36472;52.170;20.884;2022-07-31T02:40:24;25.40;78.40
21275;DHT22;36472;52.170;20.884;2022-07-31T02:42:54;25.30;85.30
21275;DHT22;36472;52.170;20.884;2022-07-31T02:45:24;25.70;89.30
21275;DHT22;36472;52.170;20.884;2022-07-31T02:47:55;25.80;81.20
21275;DHT22;36472;52.170;20.884;2022-07-31T02:50:24;26.00;82.40
21275;DHT22;36472;52.170;20.884;2022-07-31T02:52:54;25.80;76.60
21275;DHT22;36472;52.170;20.884;2022-07-31T02:55:23;25.70;73.30
21275;DHT22;36472;52.170;20.884;2022-07-31T02:57:52;25.50;74.90
21275;DHT22;36472;52.170;20.884;2022-07-31T03:00:22;25.40;77.50
21275;DHT22;36472;52.170;20.884;2022-07-31T03:02:55;25.90;76.60
21275;DHT22;36472;52.170;20.884;2022-07-31T03:05:25;26.20;75.40
21275;DHT22;36472;52.170;20.884;2022-07-31T03:07:54;26.20;73.50
21275;DHT22;36472;52.170;20.884;2022-07-31T03:10:24;26.20;76.40
21275;DHT22;36472;52.170;20.884;2022-07-31T03:13:03;26.20;86.90
21275;DHT22;36472;52.170;20.884;2022-07-31T03:15:35;25.90;77.60
21275;DHT22;36472;52.170;20.884;2022-07-31T03:18:18;26.00;78.10
21275;DHT22;36472;52.170;20.884;2022-07-31T03:20:49;26.20;77.80
21275;DHT22;36472;52.170;20.884;2022-07-31T03:23:20;26.10;72.80
21275;DHT22;36472;52.170;20.884;2022-07-31T03:26:05;26.20;73.70
21275;DHT22;36472;52.170;20.884;2022-07-31T03:28:34;26.20;73.50
21275;DHT22;36472;52.170;20.884;2022-07-31T03:31:03;26.20;72.60
21275;DHT22;36472;52.170;20.884;2022-07-31T03:33:36;26.20;72.90
21275;DHT22;36472;52.170;20.884;2022-07-31T03:36:05;26.40;74.40
21275;DHT22;36472;52.170;20.884;2022-07-31T03:38:36;26.00;74.00
21275;DHT22;36472;52.170;20.884;2022-07-31T03:41:22;26.20;72.90
21275;DHT22;36472;52.170;20.884;2022-07-31T03:43:51;26.20;72.20
21275;DHT22;36472;52.170;20.884;2022-07-31T03:46:21;26.40;72.40
21275;DHT22;36472;52.170;20.884;2022-07-31T03:48:53;26.40;71.90
21275;DHT22;36472;52.170;20.884;2022-07-31T03:51:25;26.40;73.10
21275;DHT22;36472;52.170;20.884;2022-07-31T03:53:54;26.20;71.30
21275;DHT22;36472;52.170;20.884;2022-07-31T03:56:44;26.40;73.90
21275;DHT22;36472;52.170;20.884;2022-07-31T03:59:17;26.30;73.00
21275;DHT22;36472;52.170;20.884;2022-07-31T04:01:48;26.00;71.20
21275;DHT22;36472;52.170;20.884;2022-07-31T04:04:44;26.00;75.40
21275;DHT22;36472;52.170;20.884;2022-07-31T04:07:13;25.70;74.50
21275;DHT22;36472;52.170;20.884;2022-07-31T04:09:42;25.80;75.40
21275;DHT22;36472;52.170;20.884;2022-07-31T04:12:12;25.80;75.70
21275;DHT22;36472;52.170;20.884;2022-07-31T04:14:41;25.20;73.40
21275;DHT22;36472;52.170;20.884;2022-07-31T04:17:11;25.60;75.60
21275;DHT22;36472;52.170;20.884;2022-07-31T04:19:41;26.10;74.50
21275;DHT22;36472;52.170;20.884;2022-07-31T04:22:11;26.30;72.90
21275;DHT22;36472;52.170;20.884;2022-07-31T04:24:40;26.60;74.10
21275;DHT22;36472;52.170;20.884;2022-07-31T04:27:28;26.50;72.00
21275;DHT22;36472;52.170;20.884;2022-07-31T04:29:56;26.70;71.90
21275;DHT22;36472;52.170;20.884;2022-07-31T04:32:25;26.50;73.20
21275;DHT22;36472;52.170;20.884;2022-07-31T04:34:59;26.80;72.20
21275;DHT22;36472;52.170;20.884;2022-07-31T04:37:31;26.90;73.00
21275;DHT22;36472;52.170;20.884;2022-07-31T04:40:00;26.90;71.70
21275;DHT22;36472;52.170;20.884;2022-07-31T04:42:29;27.20;71.30
21275;DHT22;36472;52.170;20.884;2022-07-31T04:44:59;27.30;70.20
21275;DHT22;36472;52.170;20.884;2022-07-31T04:47:28;27.50;70.60
21275;DHT22;36472;52.170;20.884;2022-07-31T04:49:57;27.40;70.80
21275;DHT22;36472;52.170;20.884;2022-07-31T04:52:26;27.30;70.50
21275;DHT22;36472;52.170;20.884;2022-07-31T04:55:03;26.70;69.00
21275;DHT22;36472;52.170;20.884;2022-07-31T04:57:32;26.40;71.90
21275;DHT22;36472;52.170;20.884;2022-07-31T05:00:00;26.20;71.90
21275;DHT22;36472;52.170;20.884;2022-07-31T05:02:31;26.20;72.50
21275;DHT22;36472;52.170;20.884;2022-07-31T05:05:01;26.00;73.30
21275;DHT22;36472;52.170;20.884;2022-07-31T05:07:33;26.40;73.90
21275;DHT22;36472;52.170;20.884;2022-07-31T05:10:09;26.70;73.90
21275;DHT22;36472;52.170;20.884;2022-07-31T05:12:58;26.90;73.20
21275;DHT22;36472;52.170;20.884;2022-07-31T05:15:27;27.10;71.40
21275;DHT22;36472;52.170;20.884;2022-07-31T05:17:56;26.70;72.80
21275;DHT22;36472;52.170;20.884;2022-07-31T05:20:43;26.70;71.40
21275;DHT22;36472;52.170;20.884;2022-07-31T05:23:32;26.90;71.80
21275;DHT22;36472;52.170;20.884;2022-07-31T05:26:16;26.90;69.60
21275;DHT22;36472;52.170;20.884;2022-07-31T05:28:47;26.30;71.50
21275;DHT22;36472;52.170;20.884;2022-07-31T05:31:18;26.10;71.20
21275;DHT22;36472;52.170;20.884;2022-07-31T05:33:49;25.80;73.80
21275;DHT22;36472;52.170;20.884;2022-07-31T05:36:19;26.20;73.40
21275;DHT22;36472;52.170;20.884;2022-07-31T05:38:48;26.10;72.20
21275;DHT22;36472;52.170;20.884;2022-07-31T05:41:37;26.40;72.90
21275;DHT22;36472;52.170;20.884;2022-07-31T05:44:24;26.70;73.00
21275;DHT22;36472;52.170;20.884;2022-07-31T05:46:53;26.50;72.50
21275;DHT22;36472;52.170;20.884;2022-07-31T05:49:21;26.50;71.10
21275;DHT22;36472;52.170;20.884;2022-07-31T05:51:54;26.60;71.30
21275;DHT22;36472;52.170;20.884;2022-07-31T05:54:23;26.90;72.10
21275;DHT22;36472;52.170;20.884;2022-07-31T05:57:12;26.80;71.60
21275;DHT22;36472;52.170;20.884;2022-07-31T06:00:00;26.60;71.20
21275;DHT22;36472;52.170;20.884;2022-07-31T06:02:38;26.80;71.50
21275;DHT22;36472;52.170;20.884;2022-07-31T06:05:23;27.10;71.20
21275;DHT22;36472;52.170;20.884;2022-07-31T06:07:52;27.00;70.40
21275;DHT22;36472;52.170;20.884;2022-07-31T06:10:22;27.10;69.50
21275;DHT22;36472;52.170;20.884;2022-07-31T06:12:53;26.90;69.60
21275;DHT22;36472;52.170;20.884;2022-07-31T06:15:23;27.00;71.10
21275;DHT22;36472;52.170;20.884;2022-07-31T06:17:53;27.20;69.80
21275;DHT22;36472;52.170;20.884;2022-07-31T06:20:27;27.00;69.70
21275;DHT22;36472;52.170;20.884;2022-07-31T06:22:55;27.00;70.00
21275;DHT22;36472;52.170;20.884;2022-07-31T06:25:30;27.00;73.00
21275;DHT22;36472;52.170;20.884;2022-07-31T06:28:07;26.60;70.00
21275;DHT22;36472;52.170;20.884;2022-07-31T06:30:38;26.40;72.50
21275;DHT22;36472;52.170;20.884;2022-07-31T06:33:08;26.60;71.20
21275;DHT22;36472;52.170;20.884;2022-07-31T06:35:57;26.60;70.70
21275;DHT22;36472;52.170;20.884;2022-07-31T06:38:37;26.70;70.90
21275;DHT22;36472;52.170;20.884;2022-07-31T06:41:32;26.20;71.40
21275;DHT22;36472;52.170;20.884;2022-07-31T06:44:31;26.40;71.80
21275;DHT22;36472;52.170;20.884;2022-07-31T06:47:31;26.50;71.60
21275;DHT22;36472;52.170;20.884;2022-07-31T06:49:59;26.10;72.00
21275;DHT22;36472;52.170;20.884;2022-07-31T06:52:34;25.90;71.10
21275;DHT22;36472;52.170;20.884;2022-07-31T06:55:05;26.30;73.20
21275;DHT22;36472;52.170;20.884;2022-07-31T06:57:36;26.30;71.50
21275;DHT22;36472;52.170;20.884;2022-07-31T07:00:07;26.60;71.10
21275;DHT22;36472;52.170;20.884;2022-07-31T07:02:48;27.00;70.40
21275;DHT22;36472;52.170;20.884;2022-07-31T07:05:17;27.20;69.60
21275;DHT22;36472;52.170;20.884;2022-07-31T07:07:51;27.40;71.70
21275;DHT22;36472;52.170;20.884;2022-07-31T07:10:19;27.60;69.00
21275;DHT22;36472;52.170;20.884;2022-07-31T07:12:57;27.10;70.10
21275;DHT22;36472;52.170;20.884;2022-07-31T07:15:32;26.80;69.90
21275;DHT22;36472;52.170;20.884;2022-07-31T07:18:01;27.00;71.30
21275;DHT22;36472;52.170;20.884;2022-07-31T07:20:35;27.20;70.00
21275;DHT22;36472;52.170;20.884;2022-07-31T07:23:04;27.20;69.00
21275;DHT22;36472;52.170;20.884;2022-07-31T07:25:45;27.20;69.60
21275;DHT22;36472;52.170;20.884;2022-07-31T07:28:15;27.20;68.40
21275;DHT22;36472;52.170;20.884;2022-07-31T07:31:01;27.40;68.50
21275;DHT22;36472;52.170;20.884;2022-07-31T07:33:31;27.10;68.30
21275;DHT22;36472;52.170;20.884;2022-07-31T07:36:08;26.70;71.00
21275;DHT22;36472;52.170;20.884;2022-07-31T07:38:54;26.80;69.20
21275;DHT22;36472;52.170;20.884;2022-07-31T07:41:24;27.00;70.70
21275;DHT22;36472;52.170;20.884;2022-07-31T07:43:53;27.30;70.90
21275;DHT22;36472;52.170;20.884;2022-07-31T07:46:27;27.30;69.10
21275;DHT22;36472;52.170;20.884;2022-07-31T07:48:59;27.50;71.50
21275;DHT22;36472;52.170;20.884;2022-07-31T07:51:35;27.60;68.40
21275;DHT22;36472;52.170;20.884;2022-07-31T07:54:56;27.40;70.10
21275;DHT22;36472;52.170;20.884;2022-07-31T07:58:03;27.70;69.40
21275;DHT22;36472;52.170;20.884;2022-07-31T08:01:03;27.10;70.30
21275;DHT22;36472;52.170;20.884;2022-07-31T08:03:34;27.20;70.10
21275;DHT22;36472;52.170;20.884;2022-07-31T08:06:19;26.80;71.40
21275;DHT22;36472;52.170;20.884;2022-07-31T08:08:49;26.80;72.00
21275;DHT22;36472;52.170;20.884;2022-07-31T08:11:37;27.20;72.10
21275;DHT22;36472;52.170;20.884;2022-07-31T08:14:16;27.30;71.60
21275;DHT22;36472;52.170;20.884;2022-07-31T08:17:20;27.20;71.60
21275;DHT22;36472;52.170;20.884;2022-07-31T08:19:50;27.50;70.60
21275;DHT22;36472;52.170;20.884;2022-07-31T08:22:20;27.30;70.90
21275;DHT22;36472;52.170;20.884;2022-07-31T08:24:48;27.30;71.30
21275;DHT22;36472;52.170;20.884;2022-07-31T08:27:17;27.30;71.50
21275;DHT22;36472;52.170;20.884;2022-07-31T08:30:07;27.30;71.00
21275;DHT22;36472;52.170;20.884;2022-07-31T08:32:37;27.20;70.80
21275;DHT22;36472;52.170;20.884;2022-07-31T08:35:42;26.90;72.90
21275;DHT22;36472;52.170;20.884;2022-07-31T08:38:17;26.90;73.50
21275;DHT22;36472;52.170;20.884;2022-07-31T08:41:05;27.20;72.00
21275;DHT22;36472;52.170;20.884;2022-07-31T08:43:34;27.40;71.60
21275;DHT22;36472;52.170;20.884;2022-07-31T08:46:23;27.20;71.30
21275;DHT22;36472;52.170;20.884;2022-07-31T08:48:55;27.10;71.40
21275;DHT22;36472;52.170;20.884;2022-07-31T08:51:26;27.20;72.30
21275;DHT22;36472;52.170;20.884;2022-07-31T08:54:28;27.40;72.20
21275;DHT22;36472;52.170;20.884;2022-07-31T08:56:59;27.60;70.80
21275;DHT22;36472;52.170;20.884;2022-07-31T08:59:29;27.80;71.80
21275;DHT22;36472;52.170;20.884;2022-07-31T09:01:58;28.00;70.80
21275;DHT22;36472;52.170;20.884;2022-07-31T09:04:31;28.20;70.80
21275;DHT22;36472;52.170;20.884;2022-07-31T09:07:01;28.40;70.30
21275;DHT22;36472;52.170;20.884;2022-07-31T09:09:31;28.20;70.00
21275;DHT22;36472;52.170;20.884;2022-07-31T09:12:26;27.90;70.60
21275;DHT22;36472;52.170;20.884;2022-07-31T09:15:18;28.00;70.50
21275;DHT22;36472;52.170;20.884;2022-07-31T09:17:49;27.80;70.60
21275;DHT22;36472;52.170;20.884;2022-07-31T09:20:22;27.80;70.00
21275;DHT22;36472;52.170;20.884;2022-07-31T09:23:04;27.90;70.30
21275;DHT22;36472;52.170;20.884;2022-07-31T09:25:37;27.80;70.30
21275;DHT22;36472;52.170;20.884;2022-07-31T09:28:07;27.70;70.30
21275;DHT22;36472;52.170;20.884;2022-07-31T09:30:38;27.60;71.30
21275;DHT22;36472;52.170;20.884;2022-07-31T09:33:45;27.30;71.00
21275;DHT22;36472;52.170;20.884;2022-07-31T09:36:32;27.50;71.10
21275;DHT22;36472;52.170;20.884;2022-07-31T09:39:31;27.70;70.30
21275;DHT22;36472;52.170;20.884;2022-07-31T09:42:36;27.90;70.40
21275;DHT22;36472;52.170;20.884;2022-07-31T09:45:20;28.20;70.20
21275;DHT22;36472;52.170;20.884;2022-07-31T09:48:04;27.40;69.70
21275;DHT22;36472;52.170;20.884;2022-07-31T09:50:51;27.10;72.10
21275;DHT22;36472;52.170;20.884;2022-07-31T09:53:22;27.40;72.60
21275;DHT22;36472;52.170;20.884;2022-07-31T09:56:02;27.50;72.30
21275;DHT22;36472;52.170;20.884;2022-07-31T09:58:34;27.80;70.60
21275;DHT22;36472;52.170;20.884;2022-07-31T10:01:03;27.60;71.00
21275;DHT22;36472;52.170;20.884;2022-07-31T10:03:39;27.40;71.10
21275;DHT22;36472;52.170;20.884;2022-07-31T10:06:11;27.80;70.40
21275;DHT22;36472;52.170;20.884;2022-07-31T10:08:44;27.70;71.60
21275;DHT22;36472;52.170;20.884;2022-07-31T10:11:21;27.50;69.60
21275;DHT22;36472;52.170;20.884;2022-07-31T10:14:03;27.30;72.70
21275;DHT22;36472;52.170;20.884;2022-07-31T10:16:41;27.00;73.00
21275;DHT22;36472;52.170;20.884;2022-07-31T10:19:36;27.30;71.90
21275;DHT22;36472;52.170;20.884;2022-07-31T10:22:46;27.70;71.40
21275;DHT22;36472;52.170;20.884;2022-07-31T10:25:24;27.90;71.40
21275;DHT22;36472;52.170;20.884;2022-07-31T10:27:58;28.20;70.20
21275;DHT22;36472;52.170;20.884;2022-07-31T10:30:28;28.10;70.20
21275;DHT22;36472;52.170;20.884;2022-07-31T10:32:59;28.00;70.90
21275;DHT22;36472;52.170;20.884;2022-07-31T10:36:27;28.20;70.70
21275;DHT22;36472;52.170;20.884;2022-07-31T10:39:08;27.70;70.20
21275;DHT22;36472;52.170;20.884;2022-07-31T10:42:28;27.40;70.70
21275;DHT22;36472;52.170;20.884;2022-07-31T10:45:06;27.20;72.50
21275;DHT22;36472;52.170;20.884;2022-07-31T10:47:54;27.40;73.00
21275;DHT22;36472;52.170;20.884;2022-07-31T10:50:44;27.60;71.10
21275;DHT22;36472;52.170;20.884;2022-07-31T10:53:21;27.70;71.10
21275;DHT22;36472;52.170;20.884;2022-07-31T10:56:22;27.50;71.40
21275;DHT22;36472;52.170;20.884;2022-07-31T10:59:02;27.70;70.50
21275;DHT22;36472;52.170;20.884;2022-07-31T11:02:07;27.90;71.50
21275;DHT22;36472;52.170;20.884;2022-07-31T11:04:40;27.60;71.40
21275;DHT22;36472;52.170;20.884;2022-07-31T11:07:13;27.90;71.80
21275;DHT22;36472;52.170;20.884;2022-07-31T11:10:15;27.30;71.10
21275;DHT22;36472;52.170;20.884;2022-07-31T11:13:08;27.10;71.60
21275;DHT22;36472;52.170;20.884;2022-07-31T11:16:02;27.00;72.20
21275;DHT22;36472;52.170;20.884;2022-07-31T11:18:58;26.80;73.20
21275;DHT22;36472;52.170;20.884;2022-07-31T11:21:30;27.00;72.70
21275;DHT22;36472;52.170;20.884;2022-07-31T11:24:12;27.40;72.60
21275;DHT22;36472;52.170;20.884;2022-07-31T11:26:47;27.70;71.50
21275;DHT22;36472;52.170;20.884;2022-07-31T11:29:28;27.70;71.60
21275;DHT22;36472;52.170;20.884;2022-07-31T11:32:18;26.80;71.80
21275;DHT22;36472;52.170;20.884;2022-07-31T11:34:55;26.70;72.10
21275;DHT22;36472;52.170;20.884;2022-07-31T11:37:26;26.90;75.70
21275;DHT22;36472;52.170;20.884;2022-07-31T11:40:17;26.90;75.10
21275;DHT22;36472;52.170;20.884;2022-07-31T11:42:52;26.70;75.50
21275;DHT22;36472;52.170;20.884;2022-07-31T11:45:45;26.40;76.60
21275;DHT22;36472;52.170;20.884;2022-07-31T11:48:15;26.30;77.00
21275;DHT22;36472;52.170;20.884;2022-07-31T11:50:48;26.20;78.40
21275;DHT22;36472;52.170;20.884;2022-07-31T11:53:18;26.70;81.80
21275;DHT22;36472;52.170;20.884;2022-07-31T11:55:49;26.40;75.50
21275;DHT22;36472;52.170;20.884;2022-07-31T11:58:21;26.70;76.40
21275;DHT22;36472;52.170;20.884;2022-07-31T12:00:55;26.90;78.40
21275;DHT22;36472;52.170;20.884;2022-07-31T12:03:28;27.20;75.80
21275;DHT22;36472;52.170;20.884;2022-07-31T12:06:00;27.30;74.10
21275;DHT22;36472;52.170;20.884;2022-07-31T12:08:30;27.40;73.60
21275;DHT22;36472;52.170;20.884;2022-07-31T12:11:02;27.60;73.60
21275;DHT22;36472;52.170;20.884;2022-07-31T12:13:33;28.00;72.40
21275;DHT22;36472;52.170;20.884;2022-07-31T12:16:05;27.90;71.10
21275;DHT22;36472;52.170;20.884;2022-07-31T12:18:45;28.00;72.70
21275;DHT22;36472;52.170;20.884;2022-07-31T12:21:18;27.60;70.30
21275;DHT22;36472;52.170;20.884;2022-07-31T12:23:49;27.60;71.10
21275;DHT22;36472;52.170;20.884;2022-07-31T12:26:23;27.30;73.90
21275;DHT22;36472;52.170;20.884;2022-07-31T12:28:57;27.60;72.00
21275;DHT22;36472;52.170;20.884;2022-07-31T12:31:28;27.50;72.10
21275;DHT22;36472;52.170;20.884;2022-07-31T12:33:58;27.60;72.70
21275;DHT22;36472;52.170;20.884;2022-07-31T12:36:28;27.80;70.80
21275;DHT22;36472;52.170;20.884;2022-07-31T12:38:58;27.70;71.90
21275;DHT22;36472;52.170;20.884;2022-07-31T12:41:28;27.90;71.50
21275;DHT22;36472;52.170;20.884;2022-07-31T12:44:08;27.90;71.10
21275;DHT22;36472;52.170;20.884;2022-07-31T12:46:40;27.90;70.30
21275;DHT22;36472;52.170;20.884;2022-07-31T12:49:09;27.40;70.80
21275;DHT22;36472;52.170;20.884;2022-07-31T12:51:39;27.70;71.30
21275;DHT22;36472;52.170;20.884;2022-07-31T12:54:14;27.50;71.90
21275;DHT22;36472;52.170;20.884;2022-07-31T12:56:44;27.30;71.80
21275;DHT22;36472;52.170;20.884;2022-07-31T12:59:13;27.30;72.50
21275;DHT22;36472;52.170;20.884;2022-07-31T13:01:42;27.30;72.50
21275;DHT22;36472;52.170;20.884;2022-07-31T13:04:11;27.10;71.50
21275;DHT22;36472;52.170;20.884;2022-07-31T13:06:47;27.30;72.90
21275;DHT22;36472;52.170;20.884;2022-07-31T13:09:18;27.80;72.20
21275;DHT22;36472;52.170;20.884;2022-07-31T13:11:47;28.20;72.40
21275;DHT22;36472;52.170;20.884;2022-07-31T13:14:23;28.30;69.80
21275;DHT22;36472;52.170;20.884;2022-07-31T13:16:53;28.20;68.60
21275;DHT22;36472;52.170;20.884;2022-07-31T13:19:23;27.70;68.60
21275;DHT22;36472;52.170;20.884;2022-07-31T13:21:53;27.50;70.40
21275;DHT22;36472;52.170;20.884;2022-07-31T13:24:23;27.80;70.40
21275;DHT22;36472;52.170;20.884;2022-07-31T13:26:52;28.00;69.50
21275;DHT22;36472;52.170;20.884;2022-07-31T13:29:21;27.70;68.60
21275;DHT22;36472;52.170;20.884;2022-07-31T13:31:50;27.70;68.60
21275;DHT22;36472;52.170;20.884;2022-07-31T13:34:19;27.60;70.10
21275;DHT22;36472;52.170;20.884;2022-07-31T13:36:47;27.90;69.50
21275;DHT22;36472;52.170;20.884;2022-07-31T13:39:17;27.70;68.70
21275;DHT22;36472;52.170;20.884;2022-07-31T13:41:46;27.70;68.90
21275;DHT22;36472;52.170;20.884;2022-07-31T13:44:15;27.80;69.30
21275;DHT22;36472;52.170;20.884;2022-07-31T13:46:44;27.60;68.80
21275;DHT22;36472;52.170;20.884;2022-07-31T13:49:12;27.70;69.30
21275;DHT22;36472;52.170;20.884;2022-07-31T13:51:41;27.30;69.60
21275;DHT22;36472;52.170;20.884;2022-07-31T13:54:11;27.70;69.10
21275;DHT22;36472;52.170;20.884;2022-07-31T13:56:41;27.00;69.60
21275;DHT22;36472;52.170;20.884;2022-07-31T13:59:11;26.80;70.60
21275;DHT22;36472;52.170;20.884;2022-07-31T14:01:41;26.90;71.40
21275;DHT22;36472;52.170;20.884;2022-07-31T14:04:30;27.20;71.10
21275;DHT22;36472;52.170;20.884;2022-07-31T14:07:06;27.20;70.40
21275;DHT22;36472;52.170;20.884;2022-07-31T14:09:35;27.20;69.80
21275;DHT22;36472;52.170;20.884;2022-07-31T14:12:06;27.40;69.10
21275;DHT22;36472;52.170;20.884;2022-07-31T14:14:37;27.50;68.20
21275;DHT22;36472;52.170;20.884;2022-07-31T14:17:06;27.60;69.30
21275;DHT22;36472;52.170;20.884;2022-07-31T14:19:35;27.40;68.70
21275;DHT22;36472;52.170;20.884;2022-07-31T14:22:11;27.50;69.60
21275;DHT22;36472;52.170;20.884;2022-07-31T14:24:40;27.30;69.00
21275;DHT22;36472;52.170;20.884;2022-07-31T14:27:18;27.60;69.10
21275;DHT22;36472;52.170;20.884;2022-07-31T14:29:48;27.70;68.50
21275;DHT22;36472;52.170;20.884;2022-07-31T14:32:17;27.80;68.30
21275;DHT22;36472;52.170;20.884;2022-07-31T14:34:48;27.90;67.90
21275;DHT22;36472;52.170;20.884;2022-07-31T14:37:17;27.40;68.10
21275;DHT22;36472;52.170;20.884;2022-07-31T14:39:47;27.50;68.30
21275;DHT22;36472;52.170;20.884;2022-07-31T14:42:15;27.70;69.10
21275;DHT22;36472;52.170;20.884;2022-07-31T14:44:52;27.70;68.20
21275;DHT22;36472;52.170;20.884;2022-07-31T14:47:21;27.90;69.40
21275;DHT22;36472;52.170;20.884;2022-07-31T14:49:50;27.90;68.20
21275;DHT22;36472;52.170;20.884;2022-07-31T14:52:36;27.60;67.80
21275;DHT22;36472;52.170;20.884;2022-07-31T14:55:06;27.70;68.50
21275;DHT22;36472;52.170;20.884;2022-07-31T14:57:36;27.20;68.80
21275;DHT22;36472;52.170;20.884;2022-07-31T15:00:08;27.30;69.60
21275;DHT22;36472;52.170;20.884;2022-07-31T15:02:39;27.60;68.70
21275;DHT22;36472;52.170;20.884;2022-07-31T15:05:09;27.90;68.70
21275;DHT22;36472;52.170;20.884;2022-07-31T15:07:59;28.20;68.80
21275;DHT22;36472;52.170;20.884;2022-07-31T15:10:30;28.50;67.00
21275;DHT22;36472;52.170;20.884;2022-07-31T15:12:59;28.40;67.00
21275;DHT22;36472;52.170;20.884;2022-07-31T15:15:29;28.40;66.70
21275;DHT22;36472;52.170;20.884;2022-07-31T15:18:00;28.50;66.30
21275;DHT22;36472;52.170;20.884;2022-07-31T15:20:28;28.40;66.80
21275;DHT22;36472;52.170;20.884;2022-07-31T15:22:59;28.10;67.80
21275;DHT22;36472;52.170;20.884;2022-07-31T15:25:28;28.10;69.20
21275;DHT22;36472;52.170;20.884;2022-07-31T15:27:57;27.80;68.70
21275;DHT22;36472;52.170;20.884;2022-07-31T15:30:26;28.00;69.10
21275;DHT22;36472;52.170;20.884;2022-07-31T15:32:56;27.80;68.20
21275;DHT22;36472;52.170;20.884;2022-07-31T15:35:25;28.10;67.40
21275;DHT22;36472;52.170;20.884;2022-07-31T15:37:54;28.30;66.70
21275;DHT22;36472;52.170;20.884;2022-07-31T15:40:25;28.30;66.80
21275;DHT22;36472;52.170;20.884;2022-07-31T15:42:54;28.40;66.60
21275;DHT22;36472;52.170;20.884;2022-07-31T15:45:22;28.30;66.00
21275;DHT22;36472;52.170;20.884;2022-07-31T15:47:51;28.10;66.70
21275;DHT22;36472;52.170;20.884;2022-07-31T15:50:21;27.30;67.60
21275;DHT22;36472;52.170;20.884;2022-07-31T15:52:50;27.30;69.20
21275;DHT22;36472;52.170;20.884;2022-07-31T15:55:19;27.20;68.80
21275;DHT22;36472;52.170;20.884;2022-07-31T15:57:48;27.30;69.90
21275;DHT22;36472;52.170;20.884;2022-07-31T16:00:17;27.30;68.60
21275;DHT22;36472;52.170;20.884;2022-07-31T16:02:46;27.20;68.80
21275;DHT22;36472;52.170;20.884;2022-07-31T16:05:16;27.30;69.10